createdAt,value
2023-05-19T00:01:53.448Z,10.99
2023-05-19T00:04:21.340Z,11.00
2023-05-19T00:06:51.399Z,10.98
2023-05-19T00:09:18.677Z,10.99
2023-05-19T00:11:45.934Z,10.92
2023-05-19T00:14:13.791Z,10.93
2023-05-19T00:16:42.420Z,10.94
2023-05-19T00:19:10.877Z,10.98
2023-05-19T00:21:40.653Z,10.95
2023-05-19T00:24:07.941Z,10.94
2023-05-19T00:26:34.916Z,10.94
2023-05-19T00:29:05.532Z,10.89
2023-05-19T00:31:34.243Z,10.84
2023-05-19T00:34:01.792Z,10.84
2023-05-19T00:36:31.137Z,10.84
2023-05-19T00:38:58.179Z,10.92
2023-05-19T00:41:26.262Z,10.86
2023-05-19T00:43:53.245Z,10.89
2023-05-19T00:46:20.435Z,10.92
2023-05-19T00:48:47.965Z,10.94
2023-05-19T00:51:17.151Z,10.99
2023-05-19T00:53:49.422Z,10.95
2023-05-19T00:56:17.082Z,10.93
2023-05-19T00:58:44.698Z,10.91
2023-05-19T01:01:12.336Z,10.94
2023-05-19T01:03:40.957Z,10.98
2023-05-19T01:06:08.244Z,10.97
2023-05-19T01:08:36.462Z,10.96
2023-05-19T01:11:06.808Z,11.02
2023-05-19T01:13:34.914Z,10.96
2023-05-19T01:16:07.132Z,10.97
2023-05-19T01:18:47.766Z,10.93
2023-05-19T01:21:54.004Z,10.94
2023-05-19T01:24:34.821Z,10.88
2023-05-19T01:27:23.122Z,10.88
2023-05-19T01:30:17.449Z,10.90
2023-05-19T01:32:46.152Z,10.83
2023-05-19T01:35:14.974Z,10.80
2023-05-19T01:37:42.864Z,10.74
2023-05-19T01:40:10.822Z,10.66
2023-05-19T01:42:39.966Z,10.61
2023-05-19T01:45:11.719Z,10.57
2023-05-19T01:47:41.938Z,10.61
2023-05-19T01:50:11.305Z,10.61
2023-05-19T01:52:38.427Z,10.65
2023-05-19T01:55:06.457Z,10.66
2023-05-19T01:57:38.535Z,10.60
2023-05-19T02:00:11.782Z,10.54
2023-05-19T02:02:54.538Z,10.50
2023-05-19T02:05:30.995Z,10.52
2023-05-19T02:08:04.106Z,10.51
2023-05-19T02:10:33.435Z,10.51
2023-05-19T02:13:01.753Z,10.52
2023-05-19T02:15:30.857Z,10.53
2023-05-19T02:18:00.296Z,10.50
2023-05-19T02:20:29.491Z,10.49
2023-05-19T02:22:56.277Z,10.48
2023-05-19T02:25:24.389Z,10.54
2023-05-19T02:27:52.230Z,10.47
2023-05-19T02:30:19.276Z,10.39
2023-05-19T02:32:46.923Z,10.42
2023-05-19T02:35:14.247Z,10.37
2023-05-19T02:37:42.575Z,10.37
2023-05-19T02:40:09.727Z,10.32
2023-05-19T02:42:36.614Z,10.30
2023-05-19T02:45:04.589Z,10.24
2023-05-19T02:47:31.760Z,10.24
2023-05-19T02:50:00.405Z,10.26
2023-05-19T02:52:27.402Z,10.21
2023-05-19T02:54:55.837Z,10.21
2023-05-19T02:57:22.921Z,10.19
2023-05-19T02:59:50.062Z,10.22
2023-05-19T03:02:17.041Z,10.25
2023-05-19T03:04:44.054Z,10.26
2023-05-19T03:07:11.196Z,10.23
2023-05-19T03:09:38.187Z,10.17
2023-05-19T03:12:07.724Z,10.13
2023-05-19T03:14:37.736Z,10.10
2023-05-19T03:17:07.997Z,10.14
2023-05-19T03:19:35.214Z,10.10
2023-05-19T03:22:02.275Z,10.10
2023-05-19T03:24:29.264Z,10.13
2023-05-19T03:26:56.284Z,10.18
2023-05-19T03:29:24.660Z,10.17
2023-05-19T03:31:52.488Z,10.17
2023-05-19T03:34:19.615Z,10.18
2023-05-19T03:36:46.822Z,10.14
2023-05-19T03:39:16.055Z,10.13
2023-05-19T03:41:43.961Z,10.13
2023-05-19T03:44:11.026Z,10.19
2023-05-19T03:46:39.415Z,10.27
2023-05-19T03:49:38.666Z,10.30
2023-05-19T03:52:25.681Z,10.40
2023-05-19T03:54:58.686Z,10.48
2023-05-19T03:57:25.765Z,10.56
2023-05-19T03:59:53.794Z,10.59
2023-05-19T04:02:23.108Z,10.68
2023-05-19T04:04:51.229Z,10.73
2023-05-19T04:07:18.322Z,10.76
2023-05-19T04:09:46.044Z,10.81
2023-05-19T04:12:13.085Z,10.90
2023-05-19T04:14:40.007Z,10.91
2023-05-19T04:17:07.118Z,10.92
2023-05-19T04:19:35.485Z,10.92
2023-05-19T04:22:02.492Z,10.99
2023-05-19T04:24:29.916Z,11.08
2023-05-19T04:26:57.035Z,11.15
2023-05-19T04:29:24.357Z,11.22
2023-05-19T04:31:51.315Z,11.29
2023-05-19T04:34:20.113Z,11.27
2023-05-19T04:36:50.997Z,11.32
2023-05-19T04:39:20.114Z,11.38
2023-05-19T04:41:47.200Z,11.38
2023-05-19T04:44:18.227Z,11.39
2023-05-19T04:46:50.083Z,11.45
2023-05-19T04:49:19.295Z,11.52
2023-05-19T04:51:50.133Z,11.57
2023-05-19T04:54:21.422Z,11.69
2023-05-19T04:56:48.245Z,11.84
2023-05-19T04:59:15.531Z,11.94
2023-05-19T05:01:43.332Z,12.09
2023-05-19T05:04:13.347Z,12.17
2023-05-19T05:06:42.493Z,12.27
2023-05-19T05:09:10.550Z,12.36
2023-05-19T05:11:39.627Z,12.38
2023-05-19T05:14:07.118Z,12.44
2023-05-19T05:16:35.044Z,12.55
2023-05-19T05:19:02.915Z,12.63
2023-05-19T05:21:31.825Z,12.73
2023-05-19T05:23:59.881Z,12.82
2023-05-19T05:26:31.624Z,12.90
2023-05-19T05:29:00.057Z,12.98
2023-05-19T05:31:27.177Z,13.07
2023-05-19T05:33:54.137Z,13.11
2023-05-19T05:36:26.832Z,13.14
2023-05-19T05:38:53.894Z,13.28
2023-05-19T05:41:21.745Z,13.38
2023-05-19T05:43:50.733Z,13.51
2023-05-19T05:46:19.786Z,13.64
2023-05-19T05:48:47.419Z,13.73
2023-05-19T05:51:14.973Z,13.81
2023-05-19T05:53:44.377Z,13.86
2023-05-19T05:56:14.223Z,13.95
2023-05-19T05:58:49.720Z,14.05
2023-05-19T06:01:17.007Z,14.20
2023-05-19T06:03:46.123Z,14.23
2023-05-19T06:06:18.059Z,14.21
2023-05-19T06:08:45.474Z,14.30
2023-05-19T06:11:12.697Z,14.43
2023-05-19T06:13:43.863Z,14.49
2023-05-19T06:16:17.096Z,14.60
2023-05-19T06:18:48.275Z,14.59
2023-05-19T06:21:15.341Z,14.76
2023-05-19T06:23:42.591Z,14.91
2023-05-19T06:26:11.076Z,15.07
2023-05-19T06:28:38.139Z,15.10
2023-05-19T06:31:06.186Z,15.21
2023-05-19T06:33:43.537Z,15.34
2023-05-19T06:36:12.131Z,15.45
2023-05-19T06:38:41.556Z,15.62
2023-05-19T06:41:09.167Z,15.71
2023-05-19T06:43:36.290Z,15.85
2023-05-19T06:46:04.333Z,15.87
2023-05-19T06:48:33.136Z,16.02
2023-05-19T06:51:00.412Z,16.18
2023-05-19T06:53:29.629Z,16.33
2023-05-19T06:55:59.922Z,16.52
2023-05-19T06:58:30.974Z,16.57
2023-05-19T07:00:59.311Z,16.65
2023-05-19T07:03:31.292Z,16.68
2023-05-19T07:05:59.235Z,16.64
2023-05-19T07:08:27.932Z,16.58
2023-05-19T07:10:56.488Z,16.77
2023-05-19T07:13:25.307Z,16.95
2023-05-19T07:15:57.030Z,17.09
2023-05-19T07:18:25.744Z,17.37
2023-05-19T07:20:53.558Z,17.58
2023-05-19T07:23:21.121Z,17.72
2023-05-19T07:25:48.230Z,17.95
2023-05-19T07:28:16.676Z,18.11
2023-05-19T07:30:44.208Z,18.28
2023-05-19T07:33:11.258Z,18.26
2023-05-19T07:35:38.250Z,18.45
2023-05-19T07:38:05.355Z,18.49
2023-05-19T07:40:32.714Z,18.54
2023-05-19T07:42:59.805Z,18.66
2023-05-19T07:45:28.190Z,18.87
2023-05-19T07:47:55.333Z,18.91
2023-05-19T07:50:22.497Z,18.96
2023-05-19T07:52:49.463Z,19.06
2023-05-19T07:55:17.382Z,19.18
2023-05-19T07:57:44.264Z,19.23
2023-05-19T08:00:12.681Z,18.76
2023-05-19T08:02:42.501Z,18.60
2023-05-19T08:05:10.549Z,18.78
2023-05-19T08:07:37.310Z,19.09
2023-05-19T08:10:04.765Z,19.40
2023-05-19T08:12:32.458Z,19.57
2023-05-19T08:15:01.325Z,19.82
2023-05-19T08:17:28.702Z,19.88
2023-05-19T08:19:57.264Z,19.68
2023-05-19T08:22:24.260Z,19.90
2023-05-19T08:24:51.922Z,19.97
2023-05-19T08:27:19.017Z,20.25
2023-05-19T08:29:46.092Z,20.44
2023-05-19T08:32:13.510Z,20.65
2023-05-19T08:34:41.366Z,20.87
2023-05-19T08:37:09.719Z,20.98
2023-05-19T08:39:36.788Z,21.24
2023-05-19T08:42:03.877Z,21.30
2023-05-19T08:44:31.328Z,21.29
2023-05-19T08:47:01.555Z,21.51
2023-05-19T08:49:32.759Z,21.63
2023-05-19T08:52:06.283Z,21.77
2023-05-19T08:54:40.908Z,21.90
2023-05-19T08:57:08.258Z,22.00
2023-05-19T08:59:35.221Z,21.95
2023-05-19T09:02:02.787Z,22.10
2023-05-19T09:04:30.529Z,22.25
2023-05-19T09:06:58.923Z,22.14
2023-05-19T09:09:26.102Z,21.97
2023-05-19T09:11:54.478Z,21.91
2023-05-19T09:14:21.553Z,21.99
2023-05-19T09:16:51.175Z,22.07
2023-05-19T09:19:18.422Z,22.35
2023-05-19T09:21:45.888Z,22.64
2023-05-19T09:24:13.071Z,23.00
2023-05-19T09:26:41.092Z,23.05
2023-05-19T09:29:13.443Z,23.12
2023-05-19T09:31:41.496Z,23.12
2023-05-19T09:34:14.835Z,23.42
2023-05-19T09:36:42.443Z,23.83
2023-05-19T09:39:15.518Z,24.13
2023-05-19T09:41:42.873Z,24.17
2023-05-19T09:44:14.636Z,24.13
2023-05-19T09:46:48.524Z,23.75
2023-05-19T09:49:19.708Z,23.74
2023-05-19T09:51:46.655Z,23.73
2023-05-19T09:54:15.506Z,24.05
2023-05-19T09:56:42.532Z,24.22
2023-05-19T09:59:09.576Z,24.50
2023-05-19T10:01:40.384Z,24.77
2023-05-19T10:04:07.883Z,24.72
2023-05-19T10:06:35.019Z,24.91
2023-05-19T10:09:02.445Z,25.21
2023-05-19T10:11:30.584Z,25.18
2023-05-19T10:13:58.334Z,24.62
2023-05-19T10:16:26.293Z,24.30
2023-05-19T10:18:55.810Z,24.57
2023-05-19T10:21:22.775Z,24.78
2023-05-19T10:23:49.845Z,24.46
2023-05-19T10:26:17.065Z,24.25
2023-05-19T10:28:45.488Z,24.34
2023-05-19T10:31:16.982Z,24.70
2023-05-19T10:34:00.383Z,24.81
2023-05-19T10:36:55.930Z,24.76
2023-05-19T10:39:26.150Z,25.07
2023-05-19T10:42:01.461Z,25.58
2023-05-19T10:44:41.241Z,26.04
2023-05-19T10:47:08.831Z,26.41
2023-05-19T10:49:37.481Z,26.82
2023-05-19T10:52:05.073Z,26.48
2023-05-19T10:54:41.161Z,26.52
2023-05-19T10:57:08.393Z,26.36
2023-05-19T10:59:37.931Z,26.11
2023-05-19T11:02:05.555Z,25.95
2023-05-19T11:04:52.475Z,26.21
2023-05-19T11:07:21.649Z,26.00
2023-05-19T11:09:51.123Z,26.11
2023-05-19T11:12:20.958Z,26.38
2023-05-19T11:14:47.948Z,26.51
2023-05-19T11:17:16.392Z,26.75
2023-05-19T11:19:54.651Z,26.90
2023-05-19T11:22:24.578Z,26.66
2023-05-19T11:24:54.262Z,26.24
2023-05-19T11:27:24.764Z,26.40
2023-05-19T11:29:51.888Z,26.47
2023-05-19T11:32:20.707Z,26.37
2023-05-19T11:34:49.169Z,26.62
2023-05-19T11:37:17.557Z,26.66
2023-05-19T11:39:46.055Z,26.52
2023-05-19T11:42:13.486Z,26.13
2023-05-19T11:44:46.186Z,25.92
2023-05-19T11:47:13.481Z,25.63
2023-05-19T11:49:43.452Z,25.26
2023-05-19T11:52:10.617Z,23.85
2023-05-19T11:54:41.789Z,23.10
2023-05-19T11:57:10.489Z,21.65
2023-05-19T11:59:39.229Z,19.68
2023-05-19T12:02:17.815Z,18.71
2023-05-19T12:04:45.032Z,18.53
2023-05-19T12:07:12.446Z,18.17
2023-05-19T12:09:40.851Z,17.38
2023-05-19T12:12:08.151Z,17.16
2023-05-19T12:14:35.956Z,16.88
2023-05-19T12:17:10.813Z,16.06
2023-05-19T12:19:37.934Z,15.68
2023-05-19T12:22:06.701Z,15.09
2023-05-19T12:24:34.071Z,14.73
2023-05-19T12:27:09.960Z,14.29
2023-05-19T12:29:38.414Z,14.00
2023-05-19T12:32:06.148Z,13.77
2023-05-19T12:34:35.903Z,13.66
2023-05-19T12:37:03.339Z,13.71
2023-05-19T12:39:30.415Z,13.84
2023-05-19T12:42:02.009Z,13.95
2023-05-19T12:44:31.486Z,14.14
2023-05-19T12:46:59.635Z,14.27
2023-05-19T12:49:26.599Z,14.37
2023-05-19T12:51:53.983Z,14.46
2023-05-19T12:54:21.701Z,14.67
2023-05-19T12:56:52.128Z,14.90
2023-05-19T12:59:34.574Z,15.39
2023-05-19T13:02:06.675Z,15.99
2023-05-19T13:04:33.852Z,16.57
2023-05-19T13:07:00.839Z,17.07
2023-05-19T13:09:28.635Z,17.55
2023-05-19T13:11:56.050Z,17.86
2023-05-19T13:14:22.956Z,18.27
2023-05-19T13:16:49.953Z,18.73
2023-05-19T13:19:25.497Z,18.87
2023-05-19T13:21:52.879Z,18.84
2023-05-19T13:24:19.800Z,18.81
2023-05-19T13:26:48.222Z,19.00
2023-05-19T13:29:15.212Z,19.24
2023-05-19T13:31:42.247Z,19.32
2023-05-19T13:34:09.307Z,19.37
2023-05-19T13:36:37.770Z,19.34
2023-05-19T13:39:04.777Z,19.21
2023-05-19T13:41:31.717Z,18.97
2023-05-19T13:44:01.752Z,18.89
2023-05-19T13:49:15.783Z,18.67
2023-05-19T13:51:32.996Z,18.87
2023-05-19T13:51:44.334Z,18.44
2023-05-19T13:54:11.462Z,18.33
2023-05-19T13:56:38.760Z,18.17
2023-05-19T13:59:05.732Z,18.10
2023-05-19T14:01:32.940Z,18.40
2023-05-19T14:04:00.986Z,18.79
2023-05-19T14:06:28.422Z,19.09
2023-05-19T14:08:56.732Z,19.32
2023-05-19T14:11:23.670Z,19.57
2023-05-19T14:13:53.524Z,20.03
2023-05-19T14:16:22.193Z,20.51
2023-05-19T14:18:49.459Z,20.85
2023-05-19T14:21:16.461Z,21.18
2023-05-19T14:23:43.395Z,21.32
2023-05-19T14:26:11.688Z,21.67
2023-05-19T14:28:38.624Z,22.00
2023-05-19T14:31:06.293Z,22.02
2023-05-19T14:33:35.576Z,22.24
2023-05-19T14:36:02.830Z,22.13
2023-05-19T14:38:29.841Z,22.36
2023-05-19T14:40:57.166Z,22.25
2023-05-19T14:43:25.480Z,22.60
2023-05-19T14:45:52.455Z,23.28
2023-05-19T14:48:19.463Z,23.95
2023-05-19T14:50:48.318Z,24.42
2023-05-19T14:53:15.443Z,24.76
2023-05-19T14:55:42.412Z,25.13
2023-05-19T14:58:23.661Z,25.05
2023-05-19T15:00:57.716Z,25.31
2023-05-19T15:03:25.089Z,25.72
2023-05-19T15:05:52.030Z,25.96
2023-05-19T15:08:18.932Z,26.09
2023-05-19T15:10:48.698Z,26.06
2023-05-19T15:13:16.122Z,25.81
2023-05-19T15:15:43.104Z,25.86
2023-05-19T15:18:11.697Z,25.96
2023-05-19T15:20:38.671Z,26.11
2023-05-19T15:23:05.805Z,26.04
2023-05-19T15:25:32.713Z,25.85
2023-05-19T15:27:59.792Z,25.54
2023-05-19T15:30:26.639Z,25.57
2023-05-19T15:32:53.599Z,25.26
2023-05-19T15:35:22.214Z,24.95
2023-05-19T15:37:49.127Z,25.07
2023-05-19T15:40:16.267Z,25.43
2023-05-19T15:42:43.352Z,25.65
2023-05-19T15:45:10.468Z,25.32
2023-05-19T15:47:37.401Z,24.56
2023-05-19T15:50:04.783Z,24.09
2023-05-19T15:52:33.199Z,23.70
2023-05-19T15:55:00.123Z,23.37
2023-05-19T15:57:27.093Z,23.24
2023-05-19T15:59:54.016Z,23.24
2023-05-19T16:02:21.600Z,23.10
2023-05-19T16:04:49.263Z,23.00
2023-05-19T16:07:16.957Z,22.72
2023-05-19T16:09:45.104Z,22.46
2023-05-19T16:12:12.036Z,22.19
2023-05-19T16:14:38.992Z,22.03
2023-05-19T16:17:11.418Z,21.94
2023-05-19T16:19:38.520Z,21.79
2023-05-19T16:22:05.922Z,21.58
2023-05-19T16:24:32.886Z,21.47
2023-05-19T16:27:01.371Z,21.15
2023-05-19T16:29:28.264Z,21.03
2023-05-19T16:31:55.266Z,20.87
2023-05-19T16:34:22.289Z,20.72
2023-05-19T16:36:49.230Z,20.62
2023-05-19T16:39:16.421Z,20.39
2023-05-19T16:41:43.362Z,19.86
2023-05-19T16:44:14.402Z,19.52
2023-05-19T16:46:41.678Z,19.38
2023-05-19T16:49:09.104Z,19.63
2023-05-19T16:51:36.106Z,19.66
2023-05-19T16:54:03.135Z,19.57
2023-05-19T16:56:30.046Z,19.41
2023-05-19T16:58:56.916Z,19.10
2023-05-19T17:01:25.607Z,18.63
2023-05-19T17:03:52.600Z,18.24
2023-05-19T17:06:19.606Z,17.99
2023-05-19T17:08:46.643Z,17.75
2023-05-19T17:11:13.608Z,17.50
2023-05-19T17:13:42.388Z,17.32
2023-05-19T17:16:09.514Z,17.14
2023-05-19T17:18:37.827Z,16.97
2023-05-19T17:21:05.423Z,16.93
2023-05-19T17:23:32.628Z,16.89
2023-05-19T17:25:59.561Z,16.77
2023-05-19T17:28:26.497Z,16.71
2023-05-19T17:30:53.521Z,16.70
2023-05-19T17:33:20.910Z,16.50
2023-05-19T17:35:49.281Z,16.16
2023-05-19T17:38:16.204Z,16.11
2023-05-19T17:40:43.194Z,16.22
2023-05-19T17:43:10.140Z,16.28
2023-05-19T17:45:37.040Z,16.27
2023-05-19T17:48:04.813Z,16.03
2023-05-19T17:50:31.873Z,15.94
2023-05-19T17:53:01.181Z,15.78
2023-05-19T17:55:31.014Z,15.76
2023-05-19T17:57:58.549Z,15.73
2023-05-19T18:00:26.250Z,15.73
2023-05-19T18:02:53.854Z,15.64
2023-05-19T18:05:21.635Z,15.52
2023-05-19T18:07:49.742Z,15.48
2023-05-19T18:10:18.301Z,15.46
2023-05-19T18:12:45.239Z,15.45
2023-05-19T18:15:12.272Z,15.45
2023-05-19T18:17:39.342Z,15.39
2023-05-19T18:20:07.859Z,15.33
2023-05-19T18:22:34.809Z,15.39
2023-05-19T18:25:02.003Z,15.41
2023-05-19T18:27:31.458Z,15.40
2023-05-19T18:29:58.437Z,15.47
2023-05-19T18:32:25.473Z,15.50
2023-05-19T18:34:52.400Z,15.52
2023-05-19T18:37:19.330Z,15.51
2023-05-19T18:39:46.580Z,15.48
2023-05-19T18:42:13.510Z,15.42
2023-05-19T18:44:42.329Z,15.38
2023-05-19T18:47:09.278Z,15.38
2023-05-19T18:49:36.721Z,15.35
2023-05-19T18:52:03.830Z,15.29
2023-05-19T18:54:32.520Z,15.20
2023-05-19T18:56:59.495Z,15.01
2023-05-19T18:59:26.356Z,14.85
2023-05-19T19:01:54.966Z,14.80
2023-05-19T19:04:22.171Z,14.70
2023-05-19T19:06:49.731Z,14.70
2023-05-19T19:09:16.683Z,14.74
2023-05-19T19:11:43.804Z,14.76
2023-05-19T19:14:10.900Z,14.77
2023-05-19T19:16:38.006Z,14.71
2023-05-19T19:19:06.484Z,14.69
2023-05-19T19:21:33.559Z,14.67
2023-05-19T19:24:02.118Z,14.58
2023-05-19T19:26:29.176Z,14.63
2023-05-19T19:28:56.136Z,14.63
2023-05-19T19:31:23.208Z,14.59
2023-05-19T19:33:50.166Z,14.53
2023-05-19T19:36:18.414Z,14.53
2023-05-19T19:38:45.115Z,14.50
2023-05-19T19:41:12.203Z,14.45
2023-05-19T19:43:39.087Z,14.41
2023-05-19T19:46:07.245Z,14.37
2023-05-19T19:48:34.219Z,14.40
2023-05-19T19:51:01.716Z,14.43
2023-05-19T19:53:30.182Z,14.48
2023-05-19T19:55:57.670Z,14.55
2023-05-19T19:58:27.888Z,14.57
2023-05-19T20:00:58.924Z,14.59
2023-05-19T20:03:26.494Z,14.64
2023-05-19T20:05:55.750Z,14.69
2023-05-19T20:08:22.872Z,14.70
2023-05-19T20:10:51.195Z,14.73
2023-05-19T20:13:18.452Z,14.79
2023-05-19T20:15:46.219Z,14.78
2023-05-19T20:18:14.989Z,14.71
2023-05-19T20:20:42.427Z,14.62
2023-05-19T20:23:09.430Z,14.51
2023-05-19T20:25:50.160Z,14.52
2023-05-19T20:28:27.317Z,14.52
2023-05-19T20:30:54.219Z,14.40
2023-05-19T20:33:21.312Z,14.20
2023-05-19T20:35:48.251Z,14.06
2023-05-19T20:38:15.168Z,13.87
2023-05-19T20:40:42.078Z,13.77
2023-05-19T20:43:09.143Z,13.66
2023-05-19T20:45:37.765Z,13.62
2023-05-19T20:48:06.002Z,13.56
2023-05-19T20:50:33.253Z,13.52
2023-05-19T20:53:00.771Z,13.48
2023-05-19T20:55:27.703Z,13.47
2023-05-19T20:57:54.817Z,13.45
2023-05-19T21:00:21.794Z,13.45
2023-05-19T21:02:50.136Z,13.39
2023-05-19T21:05:16.887Z,13.34
2023-05-19T21:07:43.826Z,13.23
2023-05-19T21:10:13.783Z,13.19
2023-05-19T21:12:40.723Z,13.13
2023-05-19T21:15:08.864Z,13.09
2023-05-19T21:17:35.895Z,12.99
2023-05-19T21:20:05.396Z,12.99
2023-05-19T21:22:32.393Z,13.09
2023-05-19T21:24:59.429Z,13.01
2023-05-19T21:27:26.360Z,12.88
2023-05-19T21:29:54.231Z,12.79
2023-05-19T21:32:21.671Z,12.78
2023-05-19T21:34:48.822Z,12.69
2023-05-19T21:37:17.761Z,12.48
2023-05-19T21:39:45.074Z,12.37
2023-05-19T21:42:12.421Z,12.25
2023-05-19T21:44:39.404Z,12.18
2023-05-19T21:47:06.778Z,12.15
2023-05-19T21:49:33.743Z,12.16
2023-05-19T21:52:00.712Z,12.10
2023-05-19T21:54:29.176Z,12.09
2023-05-19T21:56:56.199Z,12.10
2023-05-19T21:59:24.856Z,12.04
2023-05-19T22:01:52.375Z,12.00
2023-05-19T22:04:21.209Z,12.02
2023-05-19T22:06:48.271Z,12.08
2023-05-19T22:09:15.283Z,12.09
2023-05-19T22:11:43.607Z,11.94
2023-05-19T22:14:10.826Z,11.74
2023-05-19T22:16:37.814Z,11.71
2023-05-19T22:19:04.970Z,11.71
2023-05-19T22:21:32.084Z,11.64
2023-05-19T22:23:59.219Z,11.55
2023-05-19T22:26:27.201Z,11.52
2023-05-19T22:28:55.514Z,11.57
2023-05-19T22:31:22.460Z,11.53
2023-05-19T22:33:49.390Z,11.42
2023-05-19T22:36:16.515Z,11.34
2023-05-19T22:38:43.462Z,11.23
2023-05-19T22:41:10.418Z,11.21
2023-05-19T22:43:37.439Z,11.15
2023-05-19T22:46:06.248Z,11.18
2023-05-19T22:48:33.218Z,11.18
2023-05-19T22:51:00.161Z,11.09
2023-05-19T22:53:27.163Z,11.00
2023-05-19T22:55:54.156Z,10.90
2023-05-19T22:58:21.112Z,10.79
2023-05-19T23:00:48.080Z,10.67
2023-05-19T23:03:16.612Z,10.60
2023-05-19T23:05:43.582Z,10.59
2023-05-19T23:08:10.648Z,10.54
2023-05-19T23:10:38.025Z,10.57
2023-05-19T23:13:05.024Z,10.63
2023-05-19T23:15:32.234Z,10.59
2023-05-19T23:18:01.294Z,10.49
2023-05-19T23:20:29.677Z,10.44
2023-05-19T23:22:56.714Z,10.47
2023-05-19T23:25:23.691Z,10.49
2023-05-19T23:27:50.701Z,10.47
2023-05-19T23:30:17.766Z,10.46
2023-05-19T23:32:44.711Z,10.51
2023-05-19T23:35:13.026Z,10.52
2023-05-19T23:37:41.516Z,10.49
2023-05-19T23:40:09.225Z,10.48
2023-05-19T23:42:36.677Z,10.52
2023-05-19T23:45:03.910Z,10.49
2023-05-19T23:47:30.906Z,10.48
2023-05-19T23:49:57.905Z,10.52
2023-05-19T23:52:25.008Z,10.46
2023-05-19T23:54:53.390Z,10.41
2023-05-19T23:57:20.503Z,10.39
2023-05-19T23:59:47.574Z,10.41
